Time;durP1;ratioP1;P1;durP2;ratioP2;P2;SDS_P1;SDS_P2;PMS_P1;PMS_P2;Temp;Humidity;BMP_temperature;BMP_pressure;BME280_temperature;BME280_humidity;BME280_pressure;Samples;Min_cycle;Max_cycle;Signal;HPM_P1;HPM_P2
2022/03/28 00:00:07;;;;;;;12.10;8.10;;;;;;;7.64;61.97;100413.03;4986335;28;20890;-77
2022/03/28 00:02:37;;;;;;;12.88;10.25;;;;;;;7.58;62.13;100410.66;4982926;28;20458;-80
2022/03/28 00:05:03;;;;;;;10.18;8.63;;;;;;;7.52;62.17;100409.13;4987271;28;20243;-76
2022/03/28 00:07:28;;;;;;;13.60;8.17;;;;;;;7.45;62.72;100407.66;4985244;28;20226;-79
2022/03/28 00:09:54;;;;;;;12.03;7.80;;;;;;;7.42;62.52;100413.00;4985527;28;20457;-78
2022/03/28 00:12:19;;;;;;;14.70;9.03;;;;;;;7.34;63.07;100405.44;4983939;28;20243;-79
2022/03/28 00:14:44;;;;;;;8.37;7.43;;;;;;;7.22;63.54;100401.53;4984320;28;20223;-76
2022/03/28 00:17:10;;;;;;;12.07;7.73;;;;;;;7.11;63.55;100408.91;4984259;28;20195;-76
2022/03/28 00:19:35;;;;;;;10.60;7.47;;;;;;;7.05;63.69;100415.22;4985039;28;20680;-76
2022/03/28 00:22:01;;;;;;;11.27;7.80;;;;;;;6.99;63.86;100409.34;4983747;28;20238;-77
2022/03/28 00:24:26;;;;;;;13.67;8.93;;;;;;;6.93;64.06;100401.75;4983922;28;20726;-77
2022/03/28 00:26:51;;;;;;;11.53;6.73;;;;;;;6.91;64.25;100411.38;4982681;28;20303;-78
2022/03/28 00:29:17;;;;;;;9.27;6.83;;;;;;;6.86;64.53;100401.97;4982301;28;20208;-78
2022/03/28 00:31:42;;;;;;;13.10;8.17;;;;;;;6.84;64.07;100401.16;4984622;28;20592;-75
2022/03/28 00:34:08;;;;;;;12.30;8.63;;;;;;;6.85;64.34;100397.63;4993760;28;20229;-80
2022/03/28 00:36:33;;;;;;;10.27;7.40;;;;;;;6.85;64.09;100402.84;4980976;28;20302;-77
2022/03/28 00:38:59;;;;;;;11.47;7.50;;;;;;;6.84;64.18;100402.94;4982977;28;20601;-77
2022/03/28 00:41:24;;;;;;;11.23;8.17;;;;;;;6.83;64.57;100393.38;4983728;28;20220;-76
2022/03/28 00:43:57;;;;;;;11.63;8.30;;;;;;;6.83;64.26;100396.88;4981659;28;20232;-78
2022/03/28 00:46:24;;;;;;;14.10;9.60;;;;;;;6.85;63.88;100391.56;4984282;28;20870;-76
2022/03/28 00:48:50;;;;;;;13.95;6.82;;;;;;;6.82;64.29;100391.69;4982522;28;20531;-78
2022/03/28 00:51:17;;;;;;;16.60;9.00;;;;;;;6.80;64.33;100386.50;4981736;28;20293;-76
2022/03/28 00:53:44;;;;;;;9.50;7.60;;;;;;;6.80;64.11;100394.34;4984097;28;20259;-76
2022/03/28 00:56:11;;;;;;;14.20;10.43;;;;;;;6.83;63.96;100399.47;4983808;28;20214;-77
2022/03/28 00:58:36;;;;;;;11.68;8.13;;;;;;;6.82;63.67;100396.91;4982643;28;20265;-78
2022/03/28 01:01:02;;;;;;;11.10;7.87;;;;;;;6.80;64.02;100399.56;4982875;28;20313;-77
2022/03/28 01:03:27;;;;;;;10.17;8.03;;;;;;;6.79;63.78;100391.78;4981416;28;20514;-77
2022/03/28 01:05:53;;;;;;;15.27;10.53;;;;;;;6.77;64.31;100402.28;4983539;28;20235;-78
2022/03/28 01:08:18;;;;;;;17.77;9.63;;;;;;;6.78;64.32;100396.16;4981099;28;20215;-75
2022/03/28 01:10:47;;;;;;;15.63;8.23;;;;;;;6.81;64.23;100393.44;4985467;28;20242;-76
2022/03/28 01:13:13;;;;;;;13.27;7.75;;;;;;;6.79;64.10;100390.03;4980371;28;20302;-75
2022/03/28 01:15:38;;;;;;;9.87;7.47;;;;;;;6.73;65.09;100387.66;4982802;28;20294;-78
2022/03/28 01:18:08;;;;;;;12.40;7.93;;;;;;;6.64;64.98;100382.72;4981584;28;20203;-76
2022/03/28 01:20:36;;;;;;;9.40;6.18;;;;;;;6.55;65.39;100373.47;4983296;28;20219;-76
2022/03/28 01:23:01;;;;;;;12.13;7.75;;;;;;;6.48;65.46;100378.94;4982006;28;20908;-76
2022/03/28 01:25:29;;;;;;;8.83;7.17;;;;;;;6.37;66.13;100380.19;4982206;28;20223;-81
2022/03/28 01:27:55;;;;;;;8.52;6.70;;;;;;;6.25;66.40;100375.38;4983535;28;20836;-75
2022/03/28 01:30:22;;;;;;;13.35;7.95;;;;;;;6.15;66.71;100384.41;4983550;28;20396;-81
2022/03/28 01:32:48;;;;;;;10.60;9.05;;;;;;;6.12;66.57;100384.50;4981333;28;20688;-77
2022/03/28 01:35:37;;;;;;;21.30;8.35;;;;;;;6.09;66.99;100377.63;4980849;28;20273;-77
2022/03/28 01:38:05;;;;;;;12.23;7.32;;;;;;;6.05;66.61;100380.38;4987976;28;20250;-79
2022/03/28 01:40:32;;;;;;;13.00;8.45;;;;;;;5.97;66.76;100373.69;5003792;28;20293;-77
2022/03/28 01:42:58;;;;;;;9.23;7.72;;;;;;;5.98;67.10;100371.91;5000550;28;20214;-77
2022/03/28 01:45:24;;;;;;;8.95;7.85;;;;;;;5.97;67.36;100373.69;5002255;28;20234;-77
2022/03/28 01:47:50;;;;;;;12.80;8.37;;;;;;;5.95;66.96;100379.84;5001430;28;20329;-78
2022/03/28 01:50:16;;;;;;;13.45;8.13;;;;;;;5.95;66.81;100372.03;5000017;28;20756;-75
2022/03/28 01:52:41;;;;;;;10.60;8.05;;;;;;;5.97;67.10;100370.22;5001081;28;20199;-80
2022/03/28 01:55:09;;;;;;;11.23;6.90;;;;;;;5.95;67.11;100366.81;5002522;28;20591;-75
2022/03/28 01:57:35;;;;;;;10.43;7.43;;;;;;;5.94;67.27;100365.09;5001570;28;20219;-77
2022/03/28 02:00:00;;;;;;;18.60;8.32;;;;;;;5.92;67.29;100366.88;5001753;28;20214;-79
2022/03/28 02:02:27;;;;;;;10.40;6.83;;;;;;;5.87;67.29;100361.81;4999012;28;20296;-79
2022/03/28 02:04:52;;;;;;;11.85;7.32;;;;;;;5.85;67.11;100363.59;5000621;28;20230;-77
2022/03/28 02:07:18;;;;;;;10.90;8.47;;;;;;;5.82;67.18;100362.84;5001031;28;20285;-75
2022/03/28 02:09:43;;;;;;;12.17;7.27;;;;;;;5.74;67.54;100356.13;5000841;28;20217;-75
2022/03/28 02:12:09;;;;;;;8.87;6.73;;;;;;;5.66;67.96;100360.72;5005419;28;20308;-79
2022/03/28 02:14:34;;;;;;;11.60;9.00;;;;;;;5.64;67.51;100362.50;5006347;28;20230;-76
2022/03/28 02:17:00;;;;;;;14.70;7.80;;;;;;;5.60;67.74;100358.31;5005288;28;20214;-77
2022/03/28 02:19:25;;;;;;;9.33;7.17;;;;;;;5.53;67.76;100359.41;5002675;28;20217;-75
2022/03/28 02:21:50;;;;;;;13.00;8.20;;;;;;;5.46;68.01;100353.53;5003627;28;20826;-74
2022/03/28 02:24:16;;;;;;;12.63;8.47;;;;;;;5.41;67.85;100352.81;5002337;28;20364;-75
2022/03/28 02:26:41;;;;;;;9.97;7.43;;;;;;;5.41;68.12;100354.56;5002797;28;20576;-75
2022/03/28 02:29:07;;;;;;;12.60;8.53;;;;;;;5.39;67.93;100359.81;5000177;28;20210;-77
2022/03/28 02:31:32;;;;;;;9.70;8.20;;;;;;;5.39;68.16;100356.38;5002796;28;20818;-77
2022/03/28 02:33:58;;;;;;;9.60;7.87;;;;;;;5.32;68.03;100355.72;5001034;28;20318;-77
2022/03/28 02:36:23;;;;;;;9.27;7.73;;;;;;;5.25;68.59;100354.19;5001935;28;20218;-78
2022/03/28 02:38:49;;;;;;;11.60;8.10;;;;;;;5.18;68.72;100350.03;5002730;28;20568;-74
2022/03/28 02:41:14;;;;;;;11.60;7.77;;;;;;;5.09;68.59;100354.63;5005866;28;20379;-74
2022/03/28 02:43:39;;;;;;;11.87;8.57;;;;;;;5.06;68.50;100349.50;5002326;28;20783;-74
2022/03/28 02:46:05;;;;;;;12.20;8.20;;;;;;;5.03;68.85;100343.53;5001858;28;20237;-74
2022/03/28 02:48:31;;;;;;;10.57;6.33;;;;;;;5.01;68.78;100346.19;5001395;28;20254;-74
2022/03/28 02:50:56;;;;;;;9.53;7.10;;;;;;;5.01;69.01;100345.34;5002631;28;20561;-75
2022/03/28 02:53:21;;;;;;;13.80;8.07;;;;;;;5.00;68.79;100347.09;5002805;28;20218;-75
2022/03/28 02:55:47;;;;;;;12.33;7.93;;;;;;;5.02;68.80;100342.69;5001137;28;20479;-75
2022/03/28 02:58:12;;;;;;;10.57;8.23;;;;;;;5.01;69.30;100345.34;5000423;28;20982;-75
2022/03/28 03:00:38;;;;;;;12.33;9.00;;;;;;;4.98;69.21;100341.06;5000365;28;20210;-74
2022/03/28 03:03:03;;;;;;;13.00;9.20;;;;;;;4.96;69.53;100348.06;4999290;28;20494;-75
2022/03/28 03:05:29;;;;;;;10.40;8.80;;;;;;;4.87;69.59;100353.53;4999433;28;20214;-75
2022/03/28 03:07:54;;;;;;;11.27;8.10;;;;;;;4.82;70.13;100339.81;5000715;28;20225;-75
2022/03/28 03:10:19;;;;;;;13.03;8.87;;;;;;;4.79;69.66;100334.69;4999953;28;20237;-75
2022/03/28 03:12:45;;;;;;;11.80;9.27;;;;;;;4.78;69.60;100333.84;5002251;28;20202;-75
2022/03/28 03:15:10;;;;;;;10.57;6.83;;;;;;;4.82;69.60;100335.44;5002129;28;20268;-75
2022/03/28 03:17:36;;;;;;;12.47;7.80;;;;;;;4.83;69.01;100329.34;5006343;28;20773;-75
2022/03/28 03:20:05;;;;;;;17.27;9.32;;;;;;;4.79;69.58;100332.09;5011805;28;20233;-75
2022/03/28 03:22:31;;;;;;;14.98;8.35;;;;;;;4.73;69.72;100330.50;5005673;28;20656;-75
2022/03/28 03:24:56;;;;;;;14.13;9.47;;;;;;;4.72;69.28;100338.34;5003720;28;20239;-75
2022/03/28 03:27:23;;;;;;;13.70;8.20;;;;;;;4.76;69.07;100339.97;5010779;28;20514;-75
2022/03/28 03:29:49;;;;;;;17.75;9.27;;;;;;;4.78;68.99;100339.03;5009332;28;20706;-74
2022/03/28 03:32:14;;;;;;;14.70;8.77;;;;;;;4.78;69.08;100327.75;5009646;28;20489;-75
2022/03/28 03:34:40;;;;;;;14.60;9.40;;;;;;;4.77;69.03;100332.13;5007813;28;20258;-74
2022/03/28 03:37:06;;;;;;;13.90;8.87;;;;;;;4.78;69.00;100322.56;5007680;28;20202;-75
2022/03/28 03:39:32;;;;;;;10.70;7.85;;;;;;;4.81;69.09;100332.91;5004252;28;20672;-75
2022/03/28 03:41:58;;;;;;;16.00;8.23;;;;;;;4.81;69.12;100330.31;5000905;28;20203;-75
2022/03/28 03:44:23;;;;;;;10.50;7.53;;;;;;;4.81;69.10;100322.50;5008372;28;20317;-75
2022/03/28 03:46:49;;;;;;;11.10;8.10;;;;;;;4.83;69.04;100333.69;5005266;28;20671;-75
2022/03/28 03:49:18;;;;;;;13.20;8.10;;;;;;;4.84;68.85;100330.22;5004524;28;20246;-74
2022/03/28 03:51:43;;;;;;;12.10;7.55;;;;;;;4.83;69.00;100326.75;5005567;28;20864;-75
2022/03/28 03:54:09;;;;;;;12.63;7.53;;;;;;;4.72;69.61;100339.19;5004580;28;20222;-75
2022/03/28 03:56:35;;;;;;;9.70;8.47;;;;;;;4.60;69.70;100339.53;5009095;28;20951;-74
2022/03/28 03:59:00;;;;;;;10.77;7.93;;;;;;;4.58;69.71;100341.34;5005707;28;20203;-74
2022/03/28 04:01:26;;;;;;;13.37;8.40;;;;;;;4.52;69.64;100337.16;5000729;28;20206;-75
2022/03/28 04:03:52;;;;;;;8.53;7.63;;;;;;;4.48;69.69;100334.66;5003335;28;20226;-74
2022/03/28 04:06:18;;;;;;;9.70;7.60;;;;;;;4.44;69.39;100329.56;5000867;28;20472;-75
2022/03/28 04:08:43;;;;;;;10.20;7.43;;;;;;;4.42;69.59;100333.94;5006910;28;20210;-75
2022/03/28 04:11:09;;;;;;;14.03;6.70;;;;;;;4.39;69.51;100327.97;5010892;28;20206;-74
2022/03/28 04:13:35;;;;;;;9.70;7.70;;;;;;;4.37;69.40;100337.56;5002524;28;20308;-75
2022/03/28 04:16:01;;;;;;;12.88;8.85;;;;;;;4.36;69.56;100330.66;5005605;28;20198;-74
2022/03/28 04:18:27;;;;;;;9.40;8.45;;;;;;;4.28;69.87;100325.66;5002994;28;20277;-74
2022/03/28 04:20:53;;;;;;;16.50;8.73;;;;;;;4.22;69.80;100328.41;5009590;28;20674;-74
2022/03/28 04:23:19;;;;;;;9.30;6.70;;;;;;;4.17;70.18;100338.94;5004335;28;20808;-74
2022/03/28 04:25:45;;;;;;;11.95;8.73;;;;;;;4.12;70.11;100335.59;5000302;28;20230;-73
2022/03/28 04:28:10;;;;;;;10.30;6.93;;;;;;;4.13;70.07;100331.25;5006446;28;20221;-74
2022/03/28 04:30:36;;;;;;;12.27;8.10;;;;;;;4.12;70.04;100330.38;5008561;28;20213;-73
2022/03/28 04:33:03;;;;;;;13.32;9.50;;;;;;;4.18;70.46;100334.56;5005640;28;20479;-74
2022/03/28 04:35:29;;;;;;;14.60;10.65;;;;;;;4.17;70.51;100325.09;5004966;28;20297;-74
2022/03/28 04:37:55;;;;;;;13.82;9.02;;;;;;;4.12;70.55;100338.19;5010098;28;20226;-74
2022/03/28 04:40:21;;;;;;;14.80;9.03;;;;;;;4.12;70.44;100338.19;5005280;28;20407;-73
2022/03/28 04:42:47;;;;;;;14.70;8.63;;;;;;;4.10;70.37;100333.91;5009733;28;20693;-74
2022/03/28 04:45:13;;;;;;;12.13;8.40;;;;;;;4.03;70.61;100329.78;5007620;28;20687;-73
2022/03/28 04:47:38;;;;;;;14.82;8.43;;;;;;;3.98;70.57;100325.53;5007937;28;20456;-74
2022/03/28 04:50:05;;;;;;;13.10;8.30;;;;;;;3.96;70.62;100326.47;5008454;28;20215;-73
2022/03/28 04:52:31;;;;;;;13.82;9.05;;;;;;;3.94;70.53;100328.25;5011383;28;20210;-73
2022/03/28 04:54:56;;;;;;;16.23;9.23;;;;;;;3.92;70.55;100325.72;5008815;28;20221;-73
2022/03/28 04:57:22;;;;;;;11.90;8.53;;;;;;;3.97;70.51;100330.81;5009089;28;20207;-74
2022/03/28 04:59:48;;;;;;;20.65;10.52;;;;;;;4.00;70.18;100328.13;5002403;28;20695;-74
2022/03/28 05:02:14;;;;;;;18.10;10.33;;;;;;;4.01;70.33;100322.00;5008675;28;20600;-74
2022/03/28 05:04:40;;;;;;;14.35;9.40;;;;;;;4.00;70.86;100325.53;5002465;28;20658;-74
2022/03/28 05:07:06;;;;;;;10.30;8.53;;;;;;;4.00;70.98;100330.72;5000864;28;20397;-74
2022/03/28 05:09:32;;;;;;;13.37;8.50;;;;;;;3.99;70.73;100329.00;5003383;28;20455;-74
2022/03/28 05:11:58;;;;;;;13.77;7.25;;;;;;;3.99;70.91;100327.25;5006153;28;20460;-74
2022/03/28 05:14:23;;;;;;;11.90;9.13;;;;;;;4.03;70.68;100332.38;5005705;28;20487;-74
2022/03/28 05:16:49;;;;;;;17.20;10.70;;;;;;;4.06;70.38;100329.72;5011915;28;20230;-74
2022/03/28 05:19:15;;;;;;;12.93;9.20;;;;;;;4.11;70.65;100336.50;5003955;28;20468;-75
2022/03/28 05:21:40;;;;;;;15.25;9.68;;;;;;;4.14;70.49;100331.22;5009207;28;20364;-74
2022/03/28 05:24:06;;;;;;;14.50;9.70;;;;;;;4.18;70.36;100337.19;5010127;28;20241;-74
2022/03/28 05:26:31;;;;;;;11.87;8.97;;;;;;;4.22;70.14;100334.47;5005651;28;20218;-72
2022/03/28 05:28:57;;;;;;;17.77;10.57;;;;;;;4.23;70.42;100324.91;5001835;28;20348;-74
2022/03/28 05:31:23;;;;;;;14.53;8.50;;;;;;;4.26;70.48;100326.59;5003561;28;20233;-74
2022/03/28 05:33:48;;;;;;;12.50;9.10;;;;;;;4.25;70.49;100327.50;5008300;28;20230;-74
2022/03/28 05:36:14;;;;;;;15.00;9.20;;;;;;;4.30;70.32;100336.03;5006313;28;20206;-74
2022/03/28 05:38:40;;;;;;;11.80;8.60;;;;;;;4.32;70.45;100334.22;5003470;28;20210;-74
2022/03/28 05:41:07;;;;;;;20.75;11.00;;;;;;;4.30;70.30;100333.44;5000001;28;20683;-74
2022/03/28 05:43:36;;;;;;;20.00;12.20;;;;;;;4.31;70.27;100338.56;5007488;28;20870;-73
2022/03/28 05:46:03;;;;;;;16.85;11.02;;;;;;;4.33;69.73;100330.75;5002776;28;20194;-74
2022/03/28 05:48:29;;;;;;;14.27;10.95;;;;;;;4.39;69.66;100336.63;5003864;28;20234;-71
2022/03/28 05:50:55;;;;;;;18.75;11.73;;;;;;;4.44;69.68;100328.69;5005397;28;20499;-74
2022/03/28 05:53:21;;;;;;;14.50;10.57;;;;;;;4.45;69.60;100327.78;5004835;28;20490;-74
2022/03/28 05:55:46;;;;;;;18.47;12.57;;;;;;;4.50;69.30;100328.53;5008605;28;20200;-72
2022/03/28 05:58:12;;;;;;;17.60;11.77;;;;;;;4.58;68.80;100325.72;5007224;28;20460;-74
2022/03/28 06:00:38;;;;;;;15.20;11.00;;;;;;;4.66;68.81;100329.81;4998250;28;20305;-74
2022/03/28 06:03:04;;;;;;;17.88;10.77;;;;;;;4.71;68.91;100318.44;5004450;28;20210;-72
2022/03/28 06:05:31;;;;;;;17.02;11.30;;;;;;;4.77;68.57;100321.69;5002648;28;20242;-72
2022/03/28 06:07:57;;;;;;;17.42;9.80;;;;;;;4.87;68.30;100322.31;5003598;28;20206;-72
2022/03/28 06:10:22;;;;;;;22.40;13.53;;;;;;;4.96;67.83;100329.84;5003033;28;20472;-73
2022/03/28 06:12:48;;;;;;;18.07;10.30;;;;;;;5.02;67.93;100319.28;4999809;28;20222;-74
2022/03/28 06:15:13;;;;;;;15.10;9.43;;;;;;;5.03;67.68;100323.56;5002908;28;20226;-74
2022/03/28 06:17:39;;;;;;;17.00;11.80;;;;;;;5.06;67.88;100326.06;4999922;28;20210;-73
2022/03/28 06:20:06;;;;;;;17.50;11.07;;;;;;;5.14;67.70;100325.00;4997745;28;20213;-73
2022/03/28 06:22:31;;;;;;;19.02;10.88;;;;;;;5.24;67.13;100311.66;5002565;28;20580;-73
2022/03/28 06:24:57;;;;;;;14.80;11.10;;;;;;;5.39;66.62;100330.31;5000381;28;20344;-74
2022/03/28 06:27:25;;;;;;;23.00;15.47;;;;;;;5.52;66.50;100319.47;5007551;28;20578;-73
2022/03/28 06:29:51;;;;;;;22.67;14.80;;;;;;;5.68;65.96;100327.66;5004866;28;20206;-74
2022/03/28 06:32:17;;;;;;;18.23;12.27;;;;;;;5.83;65.59;100317.63;5001626;28;20298;-74
2022/03/28 06:34:42;;;;;;;14.83;9.60;;;;;;;5.95;64.91;100319.88;5002969;28;20345;-75
2022/03/28 06:37:07;;;;;;;20.97;13.20;;;;;;;6.07;64.76;100318.59;5002815;28;20609;-75
2022/03/28 06:39:34;;;;;;;14.97;10.93;;;;;;;6.21;64.57;100313.75;4999806;28;20218;-75
2022/03/28 06:42:00;;;;;;;17.55;10.80;;;;;;;6.33;64.09;100315.97;5003286;28;20744;-75
2022/03/28 06:44:25;;;;;;;28.93;16.50;;;;;;;6.47;63.93;100306.78;5005447;28;20597;-75
2022/03/28 06:46:51;;;;;;;32.00;19.73;;;;;;;6.54;64.05;100309.13;5001736;28;20461;-74
2022/03/28 06:49:16;;;;;;;24.97;17.80;;;;;;;6.66;63.59;100307.81;5001965;28;20304;-74
2022/03/28 06:51:42;;;;;;;18.60;13.00;;;;;;;6.79;63.52;100316.91;5007559;28;20213;-74
2022/03/28 06:54:08;;;;;;;16.15;12.98;;;;;;;6.93;63.21;100316.41;4998929;28;20657;-74
2022/03/28 06:56:35;;;;;;;19.65;13.50;;;;;;;7.08;62.93;100313.22;4997189;28;20229;-74
2022/03/28 06:59:01;;;;;;;24.90;14.15;;;;;;;7.23;63.17;100303.94;4996425;28;20234;-74
2022/03/28 07:01:26;;;;;;;15.73;11.57;;;;;;;7.37;62.54;100302.56;5001996;28;20949;-74
2022/03/28 07:03:53;;;;;;;18.80;13.70;;;;;;;7.46;62.47;100302.22;5000089;28;20595;-74
2022/03/28 07:06:19;;;;;;;20.05;13.68;;;;;;;7.53;62.28;100303.66;5004585;28;20494;-74
2022/03/28 07:08:44;;;;;;;23.33;14.63;;;;;;;7.59;62.46;100306.03;5007707;28;20818;-75
2022/03/28 07:11:10;;;;;;;15.03;12.57;;;;;;;7.65;62.08;100300.56;5004804;28;20248;-75
2022/03/28 07:13:35;;;;;;;19.60;13.80;;;;;;;7.73;62.14;100315.94;5005992;28;20261;-75
2022/03/28 07:16:00;;;;;;;20.80;14.83;;;;;;;7.81;61.61;100315.63;5006741;28;20205;-75
2022/03/28 07:18:26;;;;;;;16.70;12.33;;;;;;;7.91;61.19;100315.19;5005921;28;20684;-75
2022/03/28 07:20:51;;;;;;;23.83;13.60;;;;;;;8.02;61.19;100309.50;5002316;28;20209;-75
2022/03/28 07:23:18;;;;;;;17.10;11.97;;;;;;;8.13;60.91;100312.53;5006995;28;20503;-75
2022/03/28 07:25:44;;;;;;;18.80;12.23;;;;;;;8.20;60.61;100302.63;5000429;28;20712;-75
2022/03/28 07:28:17;;;;;;;17.10;13.82;;;;;;;8.34;60.34;100300.25;5003265;28;20245;-75
2022/03/28 07:30:53;;;;;;;20.58;13.20;;;;;;;8.44;60.09;100305.16;5002596;28;20479;-75
2022/03/28 07:33:24;;;;;;;19.83;13.30;;;;;;;8.54;59.99;100303.84;4999812;28;20281;-75
2022/03/28 07:35:55;;;;;;;16.58;12.70;;;;;;;8.66;59.73;100294.56;5000863;28;20741;-75
2022/03/28 07:38:28;;;;;;;18.52;13.85;;;;;;;8.75;59.50;100296.75;5000673;28;20559;-75
2022/03/28 07:40:56;;;;;;;21.75;12.95;;;;;;;8.82;59.32;100290.34;5001943;28;20211;-75
2022/03/28 07:43:22;;;;;;;17.52;13.90;;;;;;;8.90;59.16;100293.47;5001246;28;20233;-75
2022/03/28 07:45:55;;;;;;;19.95;13.30;;;;;;;8.96;58.81;100287.94;5001496;28;20234;-75
2022/03/28 07:48:22;;;;;;;20.33;13.68;;;;;;;9.06;58.81;100281.34;4999661;28;20406;-74
2022/03/28 07:50:55;;;;;;;18.90;12.20;;;;;;;9.38;58.07;100271.13;5001913;28;20203;-74
2022/03/28 07:53:24;;;;;;;19.52;11.85;;;;;;;10.05;56.60;100276.59;5005072;28;20702;-75
2022/03/28 07:55:54;;;;;;;18.67;13.07;;;;;;;10.94;54.06;100270.16;5000843;28;20214;-74
2022/03/28 07:58:22;;;;;;;17.42;12.77;;;;;;;11.76;51.91;100255.91;5000067;28;20288;-75
2022/03/28 08:00:48;;;;;;;17.52;14.63;;;;;;;12.42;49.57;100257.25;5000527;28;20215;-75
2022/03/28 08:03:14;;;;;;;19.20;13.83;;;;;;;13.04;48.00;100249.03;5000869;28;20260;-76
2022/03/28 08:05:56;;;;;;;17.23;13.20;;;;;;;13.70;46.40;100248.25;5003884;28;20238;-75
2022/03/28 08:08:21;;;;;;;18.88;12.27;;;;;;;14.46;44.57;100235.22;5001527;28;20666;-75
2022/03/28 08:10:46;;;;;;;17.03;13.00;;;;;;;14.88;43.27;100239.31;5006060;28;20214;-75
2022/03/28 08:13:12;;;;;;;19.10;13.37;;;;;;;15.41;41.79;100231.91;5001228;28;20508;-75
2022/03/28 08:15:37;;;;;;;27.50;14.00;;;;;;;15.99;40.62;100228.56;5002555;28;20203;-75
2022/03/28 08:18:03;;;;;;;16.10;13.70;;;;;;;16.32;39.69;100222.47;5005325;28;20222;-74
2022/03/28 08:20:28;;;;;;;21.20;13.90;;;;;;;16.43;39.45;100221.63;5006627;28;20270;-75
2022/03/28 08:22:54;;;;;;;19.47;13.60;;;;;;;16.87;38.79;100217.28;4999880;28;20216;-73
2022/03/28 08:25:21;;;;;;;16.67;13.40;;;;;;;17.18;37.98;100219.16;5003720;28;20229;-73
2022/03/28 08:27:47;;;;;;;21.73;14.10;;;;;;;17.34;37.54;100218.75;5006494;28;20233;-74
2022/03/28 08:30:13;;;;;;;18.67;12.97;;;;;;;17.12;37.45;100218.78;5001916;28;20917;-73
2022/03/28 08:32:42;;;;;;;19.57;14.97;;;;;;;17.28;36.94;100216.56;5002061;28;20594;-74
2022/03/28 08:35:08;;;;;;;17.83;13.43;;;;;;;17.66;36.21;100215.19;5004516;28;20324;-74
2022/03/28 08:37:33;;;;;;;16.53;12.80;;;;;;;18.14;35.20;100212.06;5002120;28;20577;-74
2022/03/28 08:39:59;;;;;;;23.90;13.20;;;;;;;18.54;34.20;100208.63;5000565;28;20541;-74
2022/03/28 08:42:25;;;;;;;17.63;13.87;;;;;;;18.79;33.96;100200.22;4986294;28;20253;-74
2022/03/28 08:44:52;;;;;;;19.87;14.27;;;;;;;18.67;33.71;100214.56;5003334;28;20584;-74
2022/03/28 08:47:19;;;;;;;19.97;14.00;;;;;;;18.48;33.96;100203.84;5000945;28;21334;-73
2022/03/28 08:49:47;;;;;;;18.70;13.70;;;;;;;18.46;33.74;100205.78;4997978;28;20719;-74
2022/03/28 08:52:13;;;;;;;18.90;15.17;;;;;;;18.61;33.20;100198.28;4998248;28;20455;-74
2022/03/28 08:54:38;;;;;;;18.73;13.33;;;;;;;18.62;33.08;100202.63;5000440;28;20481;-74
2022/03/28 08:57:04;;;;;;;21.57;15.53;;;;;;;18.47;33.44;100192.38;5000002;28;20293;-72
2022/03/28 08:59:29;;;;;;;21.57;15.37;;;;;;;18.63;33.10;100191.84;4999311;28;20791;-74
2022/03/28 09:01:55;;;;;;;19.47;13.90;;;;;;;19.00;32.38;100185.94;5001268;28;20672;-72
2022/03/28 09:04:20;;;;;;;19.43;13.87;;;;;;;19.29;31.95;100187.81;5001725;28;20343;-74
2022/03/28 09:06:45;;;;;;;18.87;12.10;;;;;;;19.36;31.61;100187.13;4999755;28;20230;-74
2022/03/28 09:09:28;;;;;;;18.47;13.33;;;;;;;19.20;32.05;100179.66;5006666;28;20560;-74
2022/03/28 09:11:57;;;;;;;18.73;13.80;;;;;;;19.05;32.45;100190.88;5004450;28;20218;-74
2022/03/28 09:14:37;;;;;;;19.10;14.10;;;;;;;19.00;32.09;100181.47;5004369;28;20470;-73
2022/03/28 09:17:15;;;;;;;21.80;13.60;;;;;;;18.69;32.33;100179.84;4997947;28;20453;-73
2022/03/28 09:19:55;;;;;;;17.83;13.30;;;;;;;18.31;32.80;100176.91;4996546;28;20910;-74
2022/03/28 09:22:23;;;;;;;16.30;13.40;;;;;;;18.21;33.16;100172.50;4997908;28;21049;-73
2022/03/28 09:24:50;;;;;;;17.70;13.33;;;;;;;18.23;33.12;100168.75;5003485;28;20582;-72
2022/03/28 09:27:18;;;;;;;22.33;13.17;;;;;;;18.34;32.84;100168.66;5000970;28;20831;-74
2022/03/28 09:30:12;;;;;;;21.43;13.87;;;;;;;18.41;33.17;100157.47;5005473;28;20499;-74
2022/03/28 09:32:42;;;;;;;18.77;12.70;;;;;;;18.43;33.31;100163.50;5001976;28;20914;-74
2022/03/28 09:35:21;;;;;;;17.47;11.33;;;;;;;18.35;33.59;100159.69;5004311;28;20572;-73
2022/03/28 09:38:08;;;;;;;16.63;12.37;;;;;;;18.19;33.43;100156.66;5002252;28;20457;-74
2022/03/28 09:40:41;;;;;;;14.63;11.80;;;;;;;18.05;33.08;100149.91;5002007;28;20459;-74
2022/03/28 09:43:19;;;;;;;20.40;15.30;;;;;;;18.14;32.79;100146.44;4999648;28;20456;-74
2022/03/28 09:45:50;;;;;;;19.50;12.80;;;;;;;18.18;32.24;100144.38;5003962;28;21025;-74
2022/03/28 09:48:19;;;;;;;18.90;12.27;;;;;;;18.26;32.39;100146.38;4996706;28;20507;-74
2022/03/28 09:50:47;;;;;;;34.03;14.90;;;;;;;18.36;32.27;100141.91;4998343;28;20465;-74
2022/03/28 09:53:25;;;;;;;12.70;11.17;;;;;;;18.46;32.26;100137.47;4997136;28;20705;-73
2022/03/28 09:55:59;;;;;;;19.80;13.83;;;;;;;18.56;32.17;100140.16;4999300;28;21044;-72
2022/03/28 09:58:38;;;;;;;19.13;12.10;;;;;;;18.51;32.26;100139.72;5000828;28;20461;-74
2022/03/28 10:01:12;;;;;;;21.37;13.63;;;;;;;18.46;31.82;100129.47;4999035;28;20528;-74
2022/03/28 10:03:38;;;;;;;18.07;12.60;;;;;;;18.50;32.01;100125.59;5001434;28;20485;-71
2022/03/28 10:06:06;;;;;;;19.50;13.30;;;;;;;18.61;31.75;100126.47;5002522;28;20548;-74
2022/03/28 10:08:33;;;;;;;22.60;12.60;;;;;;;18.73;31.34;100120.84;4998135;28;20591;-72
2022/03/28 10:10:59;;;;;;;21.47;14.77;;;;;;;18.66;31.39;100121.53;4997436;28;20484;-72
2022/03/28 10:13:26;;;;;;;18.80;12.43;;;;;;;18.61;31.82;100121.13;5002083;28;20528;-73
2022/03/28 10:15:52;;;;;;;21.23;12.90;;;;;;;18.58;31.77;100116.94;4999432;28;20970;-74
2022/03/28 10:18:18;;;;;;;20.97;15.30;;;;;;;18.65;31.79;100112.72;4996596;28;20446;-71
2022/03/28 10:20:46;;;;;;;18.70;11.37;;;;;;;18.84;31.68;100108.44;5001919;28;20458;-74
2022/03/28 10:23:16;;;;;;;23.27;13.17;;;;;;;19.02;31.01;100102.28;4998390;28;20962;-74
2022/03/28 10:25:42;;;;;;;23.80;12.60;;;;;;;19.13;30.93;100098.66;4994997;28;20490;-71
2022/03/28 10:28:09;;;;;;;16.13;12.40;;;;;;;19.25;30.52;100096.66;5000466;28;21021;-73
2022/03/28 10:30:35;;;;;;;17.50;11.67;;;;;;;19.08;30.94;100090.25;4999263;28;20458;-74
2022/03/28 10:33:16;;;;;;;19.47;13.80;;;;;;;18.94;31.48;100096.00;5002134;28;20473;-72
2022/03/28 10:36:00;;;;;;;19.07;12.97;;;;;;;19.01;31.36;100083.81;5000577;28;20442;-73
2022/03/28 10:38:26;;;;;;;16.63;11.10;;;;;;;19.16;30.65;100076.22;4999964;28;21198;-71
2022/03/28 10:41:03;;;;;;;18.70;12.90;;;;;;;19.17;30.47;100078.75;5001288;28;20457;-73
2022/03/28 10:43:31;;;;;;;18.23;12.20;;;;;;;19.33;30.24;100077.31;5001431;28;20515;-72
2022/03/28 10:46:00;;;;;;;17.30;11.40;;;;;;;19.31;29.63;100072.16;4999803;28;20493;-74
2022/03/28 10:48:51;;;;;;;19.80;12.70;;;;;;;19.55;29.08;100066.34;5000909;28;20536;-71
2022/03/28 10:51:20;;;;;;;15.63;12.27;;;;;;;19.72;28.53;100056.78;4999323;28;20889;-71
2022/03/28 10:54:07;;;;;;;19.07;11.90;;;;;;;19.75;28.10;100045.00;5001532;28;20486;-72
2022/03/28 10:56:35;;;;;;;16.10;12.13;;;;;;;19.82;27.94;100043.41;5001586;28;20503;-74
2022/03/28 10:59:19;;;;;;;21.77;12.73;;;;;;;19.91;27.74;100039.06;4995918;28;20456;-74
2022/03/28 11:01:46;;;;;;;19.80;12.95;;;;;;;19.81;27.07;100036.41;4997961;28;20571;-71
2022/03/28 11:04:23;;;;;;;17.40;13.80;;;;;;;19.85;27.34;100035.97;4999984;28;20223;-74
2022/03/28 11:06:53;;;;;;;19.27;13.57;;;;;;;19.75;27.30;100026.34;5001843;28;20535;-74
2022/03/28 11:10:01;;;;;;;14.43;11.73;;;;;;;19.75;27.39;100019.19;4996566;28;20937;-74
2022/03/28 11:12:34;;;;;;;19.03;12.50;;;;;;;19.94;27.25;100012.94;4996178;28;20788;-73
2022/03/28 11:15:23;;;;;;;21.43;13.43;;;;;;;19.90;26.99;100000.88;4998781;28;21008;-74
2022/03/28 11:18:03;;;;;;;20.63;13.57;;;;;;;19.79;27.63;100009.91;4997784;28;20454;-73
2022/03/28 11:20:44;;;;;;;20.93;14.23;;;;;;;19.75;27.53;99997.03;4997465;28;20803;-73